createdAt,value
2023-05-02T00:01:36.162Z,100.00
2023-05-02T00:04:02.779Z,100.00
2023-05-02T00:06:31.758Z,100.00
2023-05-02T00:08:58.647Z,100.00
2023-05-02T00:11:25.255Z,100.00
2023-05-02T00:13:51.973Z,100.00
2023-05-02T00:16:18.527Z,100.00
2023-05-02T00:18:45.041Z,100.00
2023-05-02T00:21:11.531Z,100.00
2023-05-02T00:23:41.072Z,100.00
2023-05-02T00:26:10.674Z,100.00
2023-05-02T00:28:40.714Z,100.00
2023-05-02T00:31:07.417Z,100.00
2023-05-02T00:33:34.075Z,100.00
2023-05-02T00:36:00.669Z,100.00
2023-05-02T00:38:27.237Z,100.00
2023-05-02T00:40:53.820Z,100.00
2023-05-02T00:43:21.337Z,100.00
2023-05-02T00:45:48.226Z,100.00
2023-05-02T00:48:15.009Z,100.00
2023-05-02T00:50:42.941Z,100.00
2023-05-02T00:53:10.491Z,100.00
2023-05-02T00:55:37.304Z,100.00
2023-05-02T00:58:07.269Z,100.00
2023-05-02T01:00:43.354Z,100.00
2023-05-02T01:03:25.083Z,100.00
2023-05-02T01:06:21.511Z,100.00
2023-05-02T01:09:00.493Z,100.00
2023-05-02T01:11:42.138Z,100.00
2023-05-02T01:14:11.053Z,100.00
2023-05-02T01:16:42.082Z,100.00
2023-05-02T01:19:19.744Z,100.00
2023-05-02T01:21:48.423Z,100.00
2023-05-02T01:24:22.551Z,100.00
2023-05-02T01:27:05.101Z,100.00
2023-05-02T01:29:33.280Z,100.00
2023-05-02T01:32:02.918Z,100.00
2023-05-02T01:34:31.156Z,100.00
2023-05-02T01:37:18.911Z,100.00
2023-05-02T01:40:07.670Z,100.00
2023-05-02T01:42:57.245Z,100.00
2023-05-02T01:45:45.494Z,100.00
2023-05-02T01:48:32.694Z,100.00
2023-05-02T01:51:21.427Z,100.00
2023-05-02T01:53:50.451Z,100.00
2023-05-02T01:56:19.721Z,100.00
2023-05-02T01:58:48.475Z,100.00
2023-05-02T02:01:16.279Z,100.00
2023-05-02T02:03:44.134Z,100.00
2023-05-02T02:06:12.354Z,100.00
2023-05-02T02:08:39.039Z,100.00
2023-05-02T02:11:12.040Z,100.00
2023-05-02T02:13:45.219Z,100.00
2023-05-02T02:16:19.059Z,100.00
2023-05-02T02:18:46.699Z,100.00
2023-05-02T02:21:18.004Z,100.00
2023-05-02T02:23:48.407Z,100.00
2023-05-02T02:26:17.030Z,100.00
2023-05-02T02:28:43.509Z,100.00
2023-05-02T02:31:10.522Z,100.00
2023-05-02T02:33:38.009Z,100.00
2023-05-02T02:36:49.988Z,100.00
2023-05-02T02:39:43.992Z,100.00
2023-05-02T02:42:29.530Z,100.00
2023-05-02T02:45:17.117Z,100.00
2023-05-02T02:47:59.147Z,100.00
2023-05-02T02:50:42.809Z,100.00
2023-05-02T02:53:17.934Z,100.00
2023-05-02T02:55:57.693Z,100.00
2023-05-02T02:58:43.407Z,100.00
2023-05-02T03:01:15.936Z,100.00
2023-05-02T03:03:44.384Z,100.00
2023-05-02T03:06:11.580Z,100.00
2023-05-02T03:08:42.888Z,100.00
2023-05-02T03:11:14.088Z,100.00
2023-05-02T03:13:41.448Z,100.00
2023-05-02T03:16:24.996Z,100.00
2023-05-02T03:18:51.571Z,100.00
2023-05-02T03:21:18.470Z,100.00
2023-05-02T03:23:45.369Z,100.00
2023-05-02T03:26:12.200Z,100.00
2023-05-02T03:28:39.102Z,100.00
2023-05-02T03:31:06.670Z,100.00
2023-05-02T03:33:37.012Z,100.00
2023-05-02T03:36:03.812Z,100.00
2023-05-02T03:38:30.659Z,100.00
2023-05-02T03:41:01.389Z,100.00
2023-05-02T03:43:28.627Z,100.00
2023-05-02T03:45:55.811Z,100.00
2023-05-02T03:48:23.075Z,100.00
2023-05-02T03:50:51.103Z,100.00
2023-05-02T03:53:18.162Z,100.00
2023-05-02T03:55:52.554Z,100.00
2023-05-02T03:58:27.080Z,100.00
2023-05-02T04:00:54.759Z,100.00
2023-05-02T04:03:22.580Z,100.00
2023-05-02T04:05:51.599Z,100.00
2023-05-02T04:08:18.987Z,100.00
2023-05-02T04:10:46.435Z,100.00
2023-05-02T04:13:13.774Z,100.00
2023-05-02T04:15:45.470Z,100.00
2023-05-02T04:18:13.503Z,100.00
2023-05-02T04:20:44.104Z,100.00
2023-05-02T04:23:10.668Z,100.00
2023-05-02T04:25:38.096Z,100.00
2023-05-02T04:28:06.073Z,100.00
2023-05-02T04:30:33.017Z,100.00
2023-05-02T04:33:07.520Z,100.00
2023-05-02T04:35:39.870Z,100.00
2023-05-02T04:38:07.476Z,100.00
2023-05-02T04:40:34.470Z,100.00
2023-05-02T04:43:04.805Z,100.00
2023-05-02T04:45:51.839Z,100.00
2023-05-02T04:48:26.782Z,100.00
2023-05-02T04:50:53.653Z,100.00
2023-05-02T04:53:24.078Z,100.00
2023-05-02T04:55:50.963Z,100.00
2023-05-02T04:58:17.585Z,100.00
2023-05-02T05:00:48.063Z,100.00
2023-05-02T05:03:14.639Z,100.00
2023-05-02T05:05:41.148Z,100.00
2023-05-02T05:08:12.036Z,100.00
2023-05-02T05:10:40.388Z,100.00
2023-05-02T05:13:08.116Z,100.00
2023-05-02T05:15:34.621Z,100.00
2023-05-02T05:18:03.323Z,100.00
2023-05-02T05:20:30.048Z,100.00
2023-05-02T05:22:59.815Z,100.00
2023-05-02T05:25:29.814Z,100.00
2023-05-02T05:27:59.973Z,100.00
2023-05-02T05:30:27.201Z,100.00
2023-05-02T05:32:53.952Z,100.00
2023-05-02T05:35:21.422Z,100.00
2023-05-02T05:37:47.879Z,100.00
2023-05-02T05:40:17.083Z,100.00
2023-05-02T05:42:48.051Z,100.00
2023-05-02T05:45:22.667Z,100.00
2023-05-02T05:47:49.152Z,100.00
2023-05-02T05:50:16.206Z,100.00
2023-05-02T05:52:44.488Z,100.00
2023-05-02T05:55:11.287Z,100.00
2023-05-02T05:57:38.056Z,100.00
2023-05-02T06:00:05.480Z,100.00
2023-05-02T06:02:42.569Z,100.00
2023-05-02T06:05:15.725Z,100.00
2023-05-02T06:07:42.701Z,100.00
2023-05-02T06:10:10.949Z,100.00
2023-05-02T06:12:39.393Z,100.00
2023-05-02T06:15:07.587Z,100.00
2023-05-02T06:17:35.042Z,100.00
2023-05-02T06:20:01.832Z,100.00
2023-05-02T06:22:31.503Z,100.00
2023-05-02T06:24:58.123Z,100.00
2023-05-02T06:27:24.715Z,100.00
2023-05-02T06:29:52.389Z,100.00
2023-05-02T06:32:19.157Z,100.00
2023-05-02T06:34:46.215Z,100.00
2023-05-02T06:37:13.072Z,100.00
2023-05-02T06:39:39.433Z,100.00
2023-05-02T06:42:06.093Z,100.00
2023-05-02T06:44:33.697Z,100.00
2023-05-02T06:47:00.492Z,100.00
2023-05-02T06:49:27.057Z,100.00
2023-05-02T06:51:53.697Z,100.00
2023-05-02T06:54:21.882Z,100.00
2023-05-02T06:56:48.360Z,100.00
2023-05-02T06:59:16.939Z,100.00
2023-05-02T07:01:43.963Z,100.00
2023-05-02T07:04:10.922Z,100.00
2023-05-02T07:06:37.454Z,100.00
2023-05-02T07:09:04.156Z,100.00
2023-05-02T07:11:30.921Z,100.00
2023-05-02T07:13:57.885Z,100.00
2023-05-02T07:16:24.509Z,100.00
2023-05-02T07:18:51.077Z,100.00
2023-05-02T07:21:19.021Z,100.00
2023-05-02T07:23:45.788Z,100.00
2023-05-02T07:26:12.345Z,100.00
2023-05-02T07:28:39.075Z,100.00
2023-05-02T07:31:05.845Z,100.00
2023-05-02T07:33:32.524Z,100.00
2023-05-02T07:35:59.183Z,100.00
2023-05-02T07:38:27.806Z,100.00
2023-05-02T07:40:58.581Z,100.00
2023-05-02T07:43:25.250Z,100.00
2023-05-02T07:45:51.671Z,100.00
2023-05-02T07:48:18.441Z,100.00
2023-05-02T07:50:45.372Z,100.00
2023-05-02T07:53:12.340Z,100.00
2023-05-02T07:55:38.858Z,100.00
2023-05-02T07:58:05.295Z,100.00
2023-05-02T08:00:32.070Z,100.00
2023-05-02T08:02:58.578Z,100.00
2023-05-02T08:05:25.117Z,100.00
2023-05-02T08:07:51.616Z,100.00
2023-05-02T08:10:18.429Z,100.00
2023-05-02T08:12:44.829Z,100.00
2023-05-02T08:15:13.426Z,100.00
2023-05-02T08:17:39.891Z,100.00
2023-05-02T08:20:07.122Z,100.00
2023-05-02T08:22:33.709Z,100.00
2023-05-02T08:25:00.366Z,100.00
2023-05-02T08:27:26.904Z,100.00
2023-05-02T08:29:53.438Z,100.00
2023-05-02T08:32:19.854Z,98.33
2023-05-02T08:34:46.567Z,95.70
2023-05-02T08:37:13.359Z,93.86
2023-05-02T08:39:39.905Z,92.35
2023-05-02T08:42:07.888Z,92.78
2023-05-02T08:44:34.549Z,92.03
2023-05-02T08:47:02.886Z,91.07
2023-05-02T08:49:31.926Z,88.91
2023-05-02T08:52:00.107Z,91.11
2023-05-02T08:54:27.120Z,91.33
2023-05-02T08:56:59.320Z,90.72
2023-05-02T08:59:26.054Z,92.57
2023-05-02T09:01:58.923Z,92.32
2023-05-02T09:04:31.861Z,89.78
2023-05-02T09:06:58.491Z,88.80
2023-05-02T09:09:25.875Z,88.22
2023-05-02T09:11:52.824Z,87.43
2023-05-02T09:14:19.636Z,91.39
2023-05-02T09:16:47.453Z,89.84
2023-05-02T09:19:26.096Z,90.61
2023-05-02T09:21:52.743Z,88.37
2023-05-02T09:24:21.206Z,88.59
2023-05-02T09:26:58.820Z,88.04
2023-05-02T09:29:28.685Z,87.72
2023-05-02T09:31:56.673Z,89.39
2023-05-02T09:34:24.076Z,89.99
2023-05-02T09:36:52.273Z,90.48
2023-05-02T09:39:23.043Z,88.79
2023-05-02T09:41:52.264Z,83.36
2023-05-02T09:44:21.873Z,77.71
2023-05-02T09:46:57.609Z,78.39
2023-05-02T09:49:42.339Z,79.90
2023-05-02T09:52:16.008Z,80.09
2023-05-02T09:54:42.971Z,78.07
2023-05-02T09:57:11.022Z,79.90
2023-05-02T09:59:39.864Z,80.22
2023-05-02T10:02:07.595Z,79.13
2023-05-02T10:04:34.796Z,78.42
2023-05-02T10:07:03.316Z,77.47
2023-05-02T10:09:33.920Z,75.92
2023-05-02T10:12:05.135Z,74.22
2023-05-02T10:14:39.012Z,74.65
2023-05-02T10:17:13.309Z,74.37
2023-05-02T10:20:07.412Z,72.06
2023-05-02T10:22:35.222Z,71.24
2023-05-02T10:25:03.015Z,69.78
2023-05-02T10:27:32.426Z,68.82
2023-05-02T10:30:00.521Z,67.15
2023-05-02T10:32:31.678Z,65.70
2023-05-02T10:35:05.986Z,64.63
2023-05-02T10:37:36.340Z,63.73
2023-05-02T10:40:03.673Z,60.32
2023-05-02T10:42:31.311Z,58.76
2023-05-02T10:44:58.450Z,57.97
2023-05-02T10:47:27.246Z,59.30
2023-05-02T10:49:56.709Z,58.80
2023-05-02T10:52:31.619Z,60.25
2023-05-02T10:55:19.923Z,59.38
2023-05-02T10:58:22.619Z,56.95
2023-05-02T11:00:49.332Z,54.99
2023-05-02T11:03:55.055Z,55.02
2023-05-02T11:06:21.657Z,56.14
2023-05-02T11:08:48.242Z,53.59
2023-05-02T11:11:44.018Z,53.66
2023-05-02T11:14:12.804Z,53.54
2023-05-02T11:16:59.782Z,52.35
2023-05-02T11:19:31.349Z,50.81
2023-05-02T11:22:20.714Z,52.18
2023-05-02T11:24:48.514Z,53.87
2023-05-02T11:27:30.822Z,54.67
2023-05-02T11:29:59.504Z,52.40
2023-05-02T11:32:46.715Z,51.27
2023-05-02T11:35:26.976Z,50.46
2023-05-02T11:37:57.244Z,49.55
2023-05-02T11:40:24.710Z,50.66
2023-05-02T11:42:51.187Z,48.98
2023-05-02T11:45:18.836Z,47.27
2023-05-02T11:47:46.393Z,47.46
2023-05-02T11:50:13.024Z,48.04
2023-05-02T11:52:41.475Z,47.48
2023-05-02T11:55:11.870Z,46.46
2023-05-02T11:57:39.587Z,46.09
2023-05-02T12:00:07.805Z,45.33
2023-05-02T12:02:42.694Z,44.43
2023-05-02T12:05:11.627Z,45.73
2023-05-02T12:07:46.309Z,46.32
2023-05-02T12:10:13.867Z,47.06
2023-05-02T12:12:44.749Z,47.55
2023-05-02T12:15:12.618Z,49.25
2023-05-02T12:17:42.724Z,49.67
2023-05-02T12:20:10.538Z,50.30
2023-05-02T12:22:38.006Z,51.10
2023-05-02T12:25:06.290Z,51.86
2023-05-02T12:27:36.005Z,51.82
2023-05-02T12:30:03.255Z,53.71
2023-05-02T12:32:35.047Z,51.92
2023-05-02T12:35:03.785Z,50.90
2023-05-02T12:37:30.344Z,48.79
2023-05-02T12:39:57.106Z,48.70
2023-05-02T12:42:25.386Z,48.68
2023-05-02T12:44:53.302Z,47.66
2023-05-02T12:47:21.679Z,48.19
2023-05-02T12:49:56.882Z,46.00
2023-05-02T12:52:46.945Z,43.63
2023-05-02T12:55:16.572Z,43.07
2023-05-02T12:57:43.460Z,46.57
2023-05-02T13:00:10.569Z,43.37
2023-05-02T13:02:37.206Z,40.33
2023-05-02T13:05:14.658Z,41.52
2023-05-02T13:07:41.314Z,40.18
2023-05-02T13:10:08.086Z,40.03
2023-05-02T13:12:37.252Z,38.70
2023-05-02T13:15:08.288Z,37.92
2023-05-02T13:17:35.570Z,37.52
2023-05-02T13:20:02.766Z,37.28
2023-05-02T13:22:29.489Z,36.21
2023-05-02T13:24:55.924Z,35.40
2023-05-02T13:27:23.802Z,35.41
2023-05-02T13:29:50.475Z,35.23
2023-05-02T13:32:17.527Z,35.50
2023-05-02T13:34:44.558Z,34.74
2023-05-02T13:37:11.558Z,35.30
2023-05-02T13:39:37.973Z,34.27
2023-05-02T13:42:05.959Z,36.70
2023-05-02T13:44:32.823Z,34.09
2023-05-02T13:46:59.235Z,33.96
2023-05-02T13:49:25.971Z,33.03
2023-05-02T13:51:52.452Z,32.17
2023-05-02T13:54:19.033Z,30.38
2023-05-02T13:56:45.685Z,29.54
2023-05-02T13:59:12.089Z,32.40
2023-05-02T14:01:40.505Z,34.62
2023-05-02T14:04:08.553Z,35.99
2023-05-02T14:06:35.959Z,37.19
2023-05-02T14:09:03.189Z,37.70
2023-05-02T14:11:29.943Z,38.54
2023-05-02T14:13:58.356Z,38.87
2023-05-02T14:16:25.204Z,40.90
2023-05-02T14:18:51.852Z,42.60
2023-05-02T14:21:18.281Z,44.37
2023-05-02T14:23:44.853Z,46.60
2023-05-02T14:26:11.396Z,43.58
2023-05-02T14:28:39.130Z,41.06
2023-05-02T14:31:07.162Z,38.79
2023-05-02T14:33:33.796Z,39.83
2023-05-02T14:36:00.296Z,39.05
2023-05-02T14:38:27.044Z,38.51
2023-05-02T14:40:53.940Z,37.56
2023-05-02T14:43:21.343Z,39.94
2023-05-02T14:45:48.089Z,41.32
2023-05-02T14:48:16.841Z,41.06
2023-05-02T14:50:44.191Z,39.76
2023-05-02T14:53:11.592Z,40.11
2023-05-02T14:55:39.649Z,40.35
2023-05-02T14:58:08.692Z,39.50
2023-05-02T15:00:37.838Z,39.23
2023-05-02T15:03:07.576Z,37.96
2023-05-02T15:05:37.150Z,38.49
2023-05-02T15:08:03.879Z,38.68
2023-05-02T15:10:30.782Z,37.60
2023-05-02T15:12:57.374Z,37.34
2023-05-02T15:15:25.352Z,38.09
2023-05-02T15:17:53.132Z,38.13
2023-05-02T15:20:20.103Z,39.50
2023-05-02T15:22:47.051Z,39.13
2023-05-02T15:25:13.522Z,38.92
2023-05-02T15:27:40.114Z,37.56
2023-05-02T15:30:07.424Z,37.27
2023-05-02T15:32:34.063Z,37.43
2023-05-02T15:35:00.799Z,38.24
2023-05-02T15:37:27.432Z,40.11
2023-05-02T15:39:54.039Z,40.09
2023-05-02T15:42:20.999Z,38.40
2023-05-02T15:44:47.465Z,37.85
2023-05-02T15:47:14.419Z,38.27
2023-05-02T15:49:41.414Z,37.90
2023-05-02T15:52:08.177Z,37.21
2023-05-02T15:54:35.165Z,36.76
2023-05-02T15:57:02.535Z,35.47
2023-05-02T15:59:29.285Z,37.23
2023-05-02T16:01:56.369Z,36.00
2023-05-02T16:04:22.949Z,35.31
2023-05-02T16:06:49.549Z,37.10
2023-05-02T16:09:16.145Z,36.58
2023-05-02T16:11:42.920Z,35.61
2023-05-02T16:14:09.447Z,34.20
2023-05-02T16:16:36.131Z,34.70
2023-05-02T16:19:02.644Z,34.51
2023-05-02T16:21:29.409Z,34.04
2023-05-02T16:23:55.846Z,34.12
2023-05-02T16:26:22.635Z,32.68
2023-05-02T16:28:49.223Z,31.50
2023-05-02T16:31:15.994Z,32.80
2023-05-02T16:33:43.084Z,33.03
2023-05-02T16:36:10.299Z,33.08
2023-05-02T16:38:36.969Z,34.54
2023-05-02T16:41:05.603Z,33.99
2023-05-02T16:43:32.163Z,35.33
2023-05-02T16:46:03.450Z,34.33
2023-05-02T16:48:30.168Z,34.66
2023-05-02T16:50:57.154Z,35.29
2023-05-02T16:53:24.454Z,34.73
2023-05-02T16:55:51.010Z,34.68
2023-05-02T16:58:17.794Z,34.33
2023-05-02T17:00:44.383Z,34.77
2023-05-02T17:03:11.216Z,35.22
2023-05-02T17:05:37.963Z,33.84
2023-05-02T17:08:04.497Z,35.47
2023-05-02T17:10:31.442Z,37.10
2023-05-02T17:12:59.016Z,36.52
2023-05-02T17:15:25.580Z,37.80
2023-05-02T17:17:52.346Z,38.60
2023-05-02T17:20:20.288Z,39.18
2023-05-02T17:22:47.091Z,39.14
2023-05-02T17:25:14.012Z,39.43
2023-05-02T17:27:41.335Z,40.29
2023-05-02T17:30:08.396Z,41.02
2023-05-02T17:32:37.593Z,42.86
2023-05-02T17:35:04.740Z,43.16
2023-05-02T17:37:32.923Z,43.62
2023-05-02T17:40:01.314Z,45.48
2023-05-02T17:42:28.101Z,45.18
2023-05-02T17:44:54.534Z,45.88
2023-05-02T17:47:22.016Z,46.87
2023-05-02T17:49:51.154Z,47.18
2023-05-02T17:52:17.678Z,46.90
2023-05-02T17:54:45.100Z,47.59
2023-05-02T17:57:12.698Z,48.06
2023-05-02T17:59:39.776Z,48.64
2023-05-02T18:02:09.927Z,49.21
2023-05-02T18:04:37.184Z,50.22
2023-05-02T18:07:06.032Z,49.59
2023-05-02T18:09:32.758Z,49.93
2023-05-02T18:12:00.620Z,49.73
2023-05-02T18:14:27.038Z,49.93
2023-05-02T18:16:53.505Z,50.23
2023-05-02T18:19:20.214Z,51.30
2023-05-02T18:21:46.845Z,51.07
2023-05-02T18:24:13.392Z,52.31
2023-05-02T18:26:39.866Z,51.97
2023-05-02T18:29:06.545Z,51.97
2023-05-02T18:31:34.576Z,52.53
2023-05-02T18:34:01.373Z,52.97
2023-05-02T18:36:29.101Z,53.42
2023-05-02T18:38:56.395Z,53.24
2023-05-02T18:41:23.117Z,54.73
2023-05-02T18:43:49.603Z,54.76
2023-05-02T18:46:16.196Z,54.79
2023-05-02T18:48:43.344Z,55.19
2023-05-02T18:51:10.651Z,56.40
2023-05-02T18:53:37.850Z,55.65
2023-05-02T18:56:11.878Z,55.56
2023-05-02T18:58:38.305Z,57.00
2023-05-02T19:01:12.418Z,56.83
2023-05-02T19:03:39.332Z,56.21
2023-05-02T19:06:06.124Z,56.49
2023-05-02T19:08:32.702Z,56.80
2023-05-02T19:10:59.222Z,56.64
2023-05-02T19:13:27.849Z,56.84
2023-05-02T19:15:54.305Z,57.44
2023-05-02T19:18:23.924Z,56.97
2023-05-02T19:20:50.567Z,57.09
2023-05-02T19:23:20.480Z,57.55
2023-05-02T19:25:47.818Z,58.24
2023-05-02T19:28:16.785Z,58.43
2023-05-02T19:30:44.509Z,58.58
2023-05-02T19:33:11.585Z,58.37
2023-05-02T19:35:38.508Z,59.31
2023-05-02T19:38:04.923Z,58.76
2023-05-02T19:40:31.541Z,59.13
2023-05-02T19:42:58.075Z,58.91
2023-05-02T19:45:24.666Z,60.44
2023-05-02T19:47:51.404Z,61.00
2023-05-02T19:50:17.900Z,62.00
2023-05-02T19:52:44.942Z,61.65
2023-05-02T19:55:11.629Z,63.58
2023-05-02T19:57:38.225Z,63.56
2023-05-02T20:00:06.074Z,64.13
2023-05-02T20:02:39.260Z,66.13
2023-05-02T20:05:06.247Z,67.52
2023-05-02T20:07:32.673Z,71.35
2023-05-02T20:09:59.712Z,73.20
2023-05-02T20:12:26.425Z,74.54
2023-05-02T20:14:52.969Z,74.71
2023-05-02T20:17:19.506Z,78.19
2023-05-02T20:19:46.271Z,78.31
2023-05-02T20:22:12.817Z,81.30
2023-05-02T20:24:39.513Z,83.43
2023-05-02T20:27:05.978Z,83.28
2023-05-02T20:29:32.632Z,83.78
2023-05-02T20:31:59.346Z,85.49
2023-05-02T20:34:26.013Z,82.19
2023-05-02T20:36:52.695Z,83.34
2023-05-02T20:39:21.691Z,80.57
2023-05-02T20:41:49.740Z,84.58
2023-05-02T20:44:22.223Z,88.96
2023-05-02T20:46:48.791Z,90.54
2023-05-02T20:49:15.263Z,93.04
2023-05-02T20:51:41.690Z,92.50
2023-05-02T20:54:08.199Z,93.05
2023-05-02T20:56:34.642Z,91.46
2023-05-02T20:59:01.115Z,93.66
2023-05-02T21:01:27.630Z,94.22
2023-05-02T21:03:54.376Z,90.85
2023-05-02T21:06:21.357Z,90.95
2023-05-02T21:08:48.244Z,93.47
2023-05-02T21:11:15.479Z,91.17
2023-05-02T21:13:43.029Z,90.49
2023-05-02T21:16:20.367Z,88.06
2023-05-02T21:18:47.464Z,90.85
2023-05-02T21:21:14.108Z,89.12
2023-05-02T21:23:40.660Z,89.50
2023-05-02T21:26:08.005Z,94.55
2023-05-02T21:28:34.538Z,92.39
2023-05-02T21:31:02.083Z,95.20
2023-05-02T21:33:28.831Z,92.78
2023-05-02T21:35:59.159Z,93.45
2023-05-02T21:38:26.319Z,94.33
2023-05-02T21:40:53.587Z,95.22
2023-05-02T21:43:20.757Z,94.44
2023-05-02T21:45:49.025Z,94.00
2023-05-02T21:48:17.124Z,94.45
2023-05-02T21:50:44.805Z,95.37
2023-05-02T21:53:12.834Z,97.46
2023-05-02T21:55:40.929Z,100.00
2023-05-02T21:58:09.106Z,97.27
2023-05-02T22:00:39.986Z,100.00
2023-05-02T22:03:11.952Z,99.40
2023-05-02T22:05:39.742Z,100.00
2023-05-02T22:08:07.792Z,100.00
2023-05-02T22:10:38.527Z,100.00
2023-05-02T22:13:05.933Z,100.00
2023-05-02T22:15:32.596Z,100.00
2023-05-02T22:17:59.262Z,100.00
2023-05-02T22:20:26.095Z,100.00
2023-05-02T22:22:52.560Z,100.00
2023-05-02T22:25:19.204Z,100.00
2023-05-02T22:27:45.843Z,100.00
2023-05-02T22:30:12.397Z,100.00
2023-05-02T22:32:38.966Z,100.00
2023-05-02T22:35:06.747Z,100.00
2023-05-02T22:37:33.144Z,100.00
2023-05-02T22:39:59.924Z,100.00
2023-05-02T22:42:26.671Z,100.00
2023-05-02T22:44:54.592Z,100.00
2023-05-02T22:47:21.742Z,100.00
2023-05-02T22:49:49.068Z,100.00
2023-05-02T22:52:18.403Z,100.00
2023-05-02T22:54:44.977Z,100.00
2023-05-02T22:57:11.423Z,100.00
2023-05-02T22:59:37.951Z,100.00
2023-05-02T23:02:04.528Z,100.00
2023-05-02T23:04:32.851Z,100.00
2023-05-02T23:06:59.836Z,100.00
2023-05-02T23:09:26.410Z,100.00
2023-05-02T23:11:52.909Z,100.00
2023-05-02T23:14:23.104Z,100.00
2023-05-02T23:16:50.098Z,100.00
2023-05-02T23:19:17.029Z,100.00
2023-05-02T23:21:43.668Z,100.00
2023-05-02T23:24:10.594Z,100.00
2023-05-02T23:26:37.075Z,100.00
2023-05-02T23:29:03.716Z,100.00
2023-05-02T23:31:30.288Z,100.00
2023-05-02T23:33:56.997Z,100.00
2023-05-02T23:36:23.622Z,100.00
2023-05-02T23:38:51.609Z,100.00
2023-05-02T23:41:18.219Z,100.00
2023-05-02T23:43:44.906Z,100.00
2023-05-02T23:46:11.532Z,100.00
2023-05-02T23:48:37.950Z,100.00
2023-05-02T23:51:04.629Z,100.00
2023-05-02T23:53:31.050Z,100.00
2023-05-02T23:55:58.061Z,100.00
2023-05-02T23:58:24.508Z,100.00
